sensor_id;sensor_type;location;lat;lon;timestamp;P1;durP1;ratioP1;P2;durP2;ratioP2
73919;SDS011;62266;53.348;-1.496;2023-07-31T00:00:44;0.93;;;0.40;;
73919;SDS011;62266;53.348;-1.496;2023-07-31T00:03:29;1.58;;;0.47;;
73919;SDS011;62266;53.348;-1.496;2023-07-31T00:06:13;1.52;;;0.52;;
73919;SDS011;62266;53.348;-1.496;2023-07-31T00:08:57;1.47;;;0.70;;
73919;SDS011;62266;53.348;-1.496;2023-07-31T00:11:41;1.30;;;0.50;;
73919;SDS011;62266;53.348;-1.496;2023-07-31T00:14:25;1.85;;;1.10;;
73919;SDS011;62266;53.348;-1.496;2023-07-31T00:17:10;2.03;;;0.65;;
73919;SDS011;62266;53.348;-1.496;2023-07-31T00:19:53;1.88;;;1.10;;
73919;SDS011;62266;53.348;-1.496;2023-07-31T00:22:37;1.40;;;0.50;;
73919;SDS011;62266;53.348;-1.496;2023-07-31T00:25:21;2.03;;;0.70;;
73919;SDS011;62266;53.348;-1.496;2023-07-31T00:28:05;1.55;;;0.68;;
73919;SDS011;62266;53.348;-1.496;2023-07-31T00:30:49;1.90;;;0.98;;
73919;SDS011;62266;53.348;-1.496;2023-07-31T00:33:34;2.00;;;0.65;;
73919;SDS011;62266;53.348;-1.496;2023-07-31T00:36:19;1.47;;;0.60;;
73919;SDS011;62266;53.348;-1.496;2023-07-31T00:39:03;0.98;;;0.52;;
73919;SDS011;62266;53.348;-1.496;2023-07-31T00:41:48;2.78;;;0.82;;
73919;SDS011;62266;53.348;-1.496;2023-07-31T00:44:32;1.42;;;0.73;;
73919;SDS011;62266;53.348;-1.496;2023-07-31T00:47:16;1.60;;;0.70;;
73919;SDS011;62266;53.348;-1.496;2023-07-31T00:50:01;1.50;;;0.70;;
73919;SDS011;62266;53.348;-1.496;2023-07-31T00:52:45;2.28;;;0.77;;
73919;SDS011;62266;53.348;-1.496;2023-07-31T00:55:29;1.80;;;0.68;;
73919;SDS011;62266;53.348;-1.496;2023-07-31T00:58:13;1.40;;;0.43;;
73919;SDS011;62266;53.348;-1.496;2023-07-31T01:00:57;1.00;;;0.43;;
73919;SDS011;62266;53.348;-1.496;2023-07-31T01:03:41;1.47;;;0.50;;
73919;SDS011;62266;53.348;-1.496;2023-07-31T01:06:31;1.30;;;0.70;;
73919;SDS011;62266;53.348;-1.496;2023-07-31T01:09:32;2.88;;;0.50;;
73919;SDS011;62266;53.348;-1.496;2023-07-31T01:12:39;1.05;;;0.50;;
73919;SDS011;62266;53.348;-1.496;2023-07-31T01:15:24;1.73;;;0.60;;
73919;SDS011;62266;53.348;-1.496;2023-07-31T01:18:08;1.03;;;0.50;;
73919;SDS011;62266;53.348;-1.496;2023-07-31T01:20:54;1.55;;;0.70;;
73919;SDS011;62266;53.348;-1.496;2023-07-31T01:32:54;2.37;;;0.60;;
73919;SDS011;62266;53.348;-1.496;2023-07-31T01:35:42;1.55;;;0.47;;
73919;SDS011;62266;53.348;-1.496;2023-07-31T01:38:28;1.58;;;0.60;;
73919;SDS011;62266;53.348;-1.496;2023-07-31T01:41:12;0.80;;;0.52;;
73919;SDS011;62266;53.348;-1.496;2023-07-31T01:43:57;0.98;;;0.55;;
73919;SDS011;62266;53.348;-1.496;2023-07-31T01:46:41;0.60;;;0.40;;
73919;SDS011;62266;53.348;-1.496;2023-07-31T01:49:25;0.77;;;0.50;;
73919;SDS011;62266;53.348;-1.496;2023-07-31T01:52:09;2.47;;;0.50;;
73919;SDS011;62266;53.348;-1.496;2023-07-31T01:54:53;1.48;;;0.70;;
73919;SDS011;62266;53.348;-1.496;2023-07-31T01:57:37;2.83;;;0.52;;
73919;SDS011;62266;53.348;-1.496;2023-07-31T02:00:21;0.53;;;0.40;;
73919;SDS011;62266;53.348;-1.496;2023-07-31T02:03:05;0.98;;;0.47;;
73919;SDS011;62266;53.348;-1.496;2023-07-31T02:05:50;2.20;;;0.40;;
73919;SDS011;62266;53.348;-1.496;2023-07-31T02:08:34;1.05;;;0.30;;
73919;SDS011;62266;53.348;-1.496;2023-07-31T02:11:18;1.63;;;0.52;;
73919;SDS011;62266;53.348;-1.496;2023-07-31T02:14:02;0.83;;;0.40;;
73919;SDS011;62266;53.348;-1.496;2023-07-31T02:16:46;2.70;;;0.68;;
73919;SDS011;62266;53.348;-1.496;2023-07-31T02:19:30;0.75;;;0.43;;
73919;SDS011;62266;53.348;-1.496;2023-07-31T02:22:14;1.15;;;0.20;;
73919;SDS011;62266;53.348;-1.496;2023-07-31T02:24:59;0.60;;;0.25;;
73919;SDS011;62266;53.348;-1.496;2023-07-31T02:27:43;0.40;;;0.20;;
73919;SDS011;62266;53.348;-1.496;2023-07-31T02:30:27;1.00;;;0.40;;
73919;SDS011;62266;53.348;-1.496;2023-07-31T02:33:11;0.50;;;0.25;;
73919;SDS011;62266;53.348;-1.496;2023-07-31T02:35:56;1.25;;;0.20;;
73919;SDS011;62266;53.348;-1.496;2023-07-31T02:38:40;1.35;;;0.30;;
73919;SDS011;62266;53.348;-1.496;2023-07-31T02:41:24;0.43;;;0.20;;
73919;SDS011;62266;53.348;-1.496;2023-07-31T02:44:08;2.65;;;0.20;;
73919;SDS011;62266;53.348;-1.496;2023-07-31T02:46:52;0.55;;;0.22;;
73919;SDS011;62266;53.348;-1.496;2023-07-31T02:49:36;0.93;;;0.30;;
73919;SDS011;62266;53.348;-1.496;2023-07-31T02:52:20;0.32;;;0.20;;
73919;SDS011;62266;53.348;-1.496;2023-07-31T02:55:04;0.80;;;0.20;;
73919;SDS011;62266;53.348;-1.496;2023-07-31T02:57:54;0.85;;;0.20;;
73919;SDS011;62266;53.348;-1.496;2023-07-31T03:00:45;0.30;;;0.10;;
73919;SDS011;62266;53.348;-1.496;2023-07-31T03:03:28;0.20;;;0.10;;
73919;SDS011;62266;53.348;-1.496;2023-07-31T03:06:13;0.20;;;0.20;;
73919;SDS011;62266;53.348;-1.496;2023-07-31T03:08:56;0.20;;;0.10;;
73919;SDS011;62266;53.348;-1.496;2023-07-31T03:11:40;0.57;;;0.15;;
73919;SDS011;62266;53.348;-1.496;2023-07-31T03:14:24;0.90;;;0.25;;
73919;SDS011;62266;53.348;-1.496;2023-07-31T03:17:10;0.52;;;0.20;;
73919;SDS011;62266;53.348;-1.496;2023-07-31T03:19:54;0.57;;;0.20;;
73919;SDS011;62266;53.348;-1.496;2023-07-31T03:22:38;1.10;;;0.33;;
73919;SDS011;62266;53.348;-1.496;2023-07-31T03:25:22;0.95;;;0.40;;
73919;SDS011;62266;53.348;-1.496;2023-07-31T03:28:06;0.98;;;0.40;;
73919;SDS011;62266;53.348;-1.496;2023-07-31T03:30:51;1.02;;;0.20;;
73919;SDS011;62266;53.348;-1.496;2023-07-31T03:33:35;0.55;;;0.52;;
73919;SDS011;62266;53.348;-1.496;2023-07-31T03:36:19;0.73;;;0.57;;
73919;SDS011;62266;53.348;-1.496;2023-07-31T03:39:03;1.45;;;0.70;;
73919;SDS011;62266;53.348;-1.496;2023-07-31T03:41:47;2.38;;;0.90;;
73919;SDS011;62266;53.348;-1.496;2023-07-31T03:44:31;1.05;;;0.70;;
73919;SDS011;62266;53.348;-1.496;2023-07-31T03:47:15;1.10;;;1.00;;
73919;SDS011;62266;53.348;-1.496;2023-07-31T03:49:59;2.03;;;0.80;;
73919;SDS011;62266;53.348;-1.496;2023-07-31T03:52:43;1.67;;;0.93;;
73919;SDS011;62266;53.348;-1.496;2023-07-31T03:55:27;1.88;;;0.82;;
73919;SDS011;62266;53.348;-1.496;2023-07-31T03:58:11;1.60;;;1.00;;
73919;SDS011;62266;53.348;-1.496;2023-07-31T04:00:55;2.03;;;1.23;;
73919;SDS011;62266;53.348;-1.496;2023-07-31T04:03:39;4.27;;;1.10;;
73919;SDS011;62266;53.348;-1.496;2023-07-31T04:06:23;1.13;;;1.00;;
73919;SDS011;62266;53.348;-1.496;2023-07-31T04:09:07;2.20;;;1.00;;
73919;SDS011;62266;53.348;-1.496;2023-07-31T04:11:51;1.38;;;1.27;;
73919;SDS011;62266;53.348;-1.496;2023-07-31T04:14:35;2.03;;;1.35;;
73919;SDS011;62266;53.348;-1.496;2023-07-31T04:17:19;1.50;;;1.40;;
73919;SDS011;62266;53.348;-1.496;2023-07-31T04:20:03;2.03;;;1.00;;
73919;SDS011;62266;53.348;-1.496;2023-07-31T04:22:48;2.22;;;1.30;;
73919;SDS011;62266;53.348;-1.496;2023-07-31T04:25:33;2.28;;;1.33;;
73919;SDS011;62266;53.348;-1.496;2023-07-31T04:28:18;1.20;;;1.10;;
73919;SDS011;62266;53.348;-1.496;2023-07-31T04:31:03;1.50;;;1.30;;
73919;SDS011;62266;53.348;-1.496;2023-07-31T04:33:47;1.45;;;1.13;;
73919;SDS011;62266;53.348;-1.496;2023-07-31T04:36:31;1.45;;;1.30;;
73919;SDS011;62266;53.348;-1.496;2023-07-31T04:39:15;1.15;;;1.05;;
73919;SDS011;62266;53.348;-1.496;2023-07-31T04:41:59;1.73;;;1.10;;
73919;SDS011;62266;53.348;-1.496;2023-07-31T04:44:43;1.53;;;1.43;;
73919;SDS011;62266;53.348;-1.496;2023-07-31T04:47:27;1.70;;;1.27;;
73919;SDS011;62266;53.348;-1.496;2023-07-31T04:50:11;3.85;;;1.17;;
73919;SDS011;62266;53.348;-1.496;2023-07-31T04:52:56;1.52;;;1.30;;
73919;SDS011;62266;53.348;-1.496;2023-07-31T04:55:40;2.85;;;1.10;;
73919;SDS011;62266;53.348;-1.496;2023-07-31T04:58:24;1.70;;;1.13;;
73919;SDS011;62266;53.348;-1.496;2023-07-31T05:01:08;1.67;;;0.90;;
73919;SDS011;62266;53.348;-1.496;2023-07-31T05:03:52;1.27;;;1.02;;
73919;SDS011;62266;53.348;-1.496;2023-07-31T05:06:36;2.45;;;0.80;;
73919;SDS011;62266;53.348;-1.496;2023-07-31T05:09:20;2.55;;;1.00;;
73919;SDS011;62266;53.348;-1.496;2023-07-31T05:12:04;1.40;;;0.80;;
73919;SDS011;62266;53.348;-1.496;2023-07-31T05:14:50;1.20;;;0.77;;
73919;SDS011;62266;53.348;-1.496;2023-07-31T05:17:34;1.35;;;0.98;;
73919;SDS011;62266;53.348;-1.496;2023-07-31T05:20:18;1.48;;;0.70;;
73919;SDS011;62266;53.348;-1.496;2023-07-31T05:23:05;2.53;;;1.00;;
73919;SDS011;62266;53.348;-1.496;2023-07-31T05:25:49;1.80;;;1.00;;
73919;SDS011;62266;53.348;-1.496;2023-07-31T05:28:34;2.17;;;0.70;;
73919;SDS011;62266;53.348;-1.496;2023-07-31T05:31:18;1.63;;;0.80;;
73919;SDS011;62266;53.348;-1.496;2023-07-31T05:34:02;2.42;;;1.05;;
73919;SDS011;62266;53.348;-1.496;2023-07-31T05:36:46;2.53;;;0.90;;
73919;SDS011;62266;53.348;-1.496;2023-07-31T05:39:31;1.67;;;1.07;;
73919;SDS011;62266;53.348;-1.496;2023-07-31T05:42:15;3.85;;;1.42;;
73919;SDS011;62266;53.348;-1.496;2023-07-31T05:44:59;1.55;;;1.20;;
73919;SDS011;62266;53.348;-1.496;2023-07-31T05:47:43;4.05;;;1.58;;
73919;SDS011;62266;53.348;-1.496;2023-07-31T05:50:26;3.35;;;1.23;;
73919;SDS011;62266;53.348;-1.496;2023-07-31T05:53:11;4.17;;;1.40;;
73919;SDS011;62266;53.348;-1.496;2023-07-31T05:55:55;2.88;;;1.45;;
73919;SDS011;62266;53.348;-1.496;2023-07-31T05:58:40;5.45;;;1.50;;
73919;SDS011;62266;53.348;-1.496;2023-07-31T06:01:24;3.53;;;1.40;;
73919;SDS011;62266;53.348;-1.496;2023-07-31T06:04:08;5.50;;;1.73;;
73919;SDS011;62266;53.348;-1.496;2023-07-31T06:06:52;4.50;;;1.47;;
73919;SDS011;62266;53.348;-1.496;2023-07-31T06:09:36;3.20;;;1.35;;
73919;SDS011;62266;53.348;-1.496;2023-07-31T06:12:20;4.70;;;1.85;;
73919;SDS011;62266;53.348;-1.496;2023-07-31T06:15:04;2.67;;;1.55;;
73919;SDS011;62266;53.348;-1.496;2023-07-31T06:17:49;3.92;;;1.52;;
73919;SDS011;62266;53.348;-1.496;2023-07-31T06:20:33;5.17;;;2.13;;
73919;SDS011;62266;53.348;-1.496;2023-07-31T06:23:19;2.78;;;1.48;;
73919;SDS011;62266;53.348;-1.496;2023-07-31T06:26:04;4.68;;;1.83;;
73919;SDS011;62266;53.348;-1.496;2023-07-31T06:28:48;4.45;;;1.80;;
73919;SDS011;62266;53.348;-1.496;2023-07-31T06:31:32;3.75;;;1.63;;
73919;SDS011;62266;53.348;-1.496;2023-07-31T06:34:16;4.37;;;1.70;;
73919;SDS011;62266;53.348;-1.496;2023-07-31T06:37:00;3.88;;;2.05;;
73919;SDS011;62266;53.348;-1.496;2023-07-31T06:39:45;5.13;;;1.70;;
73919;SDS011;62266;53.348;-1.496;2023-07-31T06:42:29;6.57;;;2.50;;
73919;SDS011;62266;53.348;-1.496;2023-07-31T06:45:13;5.72;;;2.42;;
73919;SDS011;62266;53.348;-1.496;2023-07-31T06:47:57;6.47;;;2.10;;
73919;SDS011;62266;53.348;-1.496;2023-07-31T06:50:44;3.75;;;2.00;;
73919;SDS011;62266;53.348;-1.496;2023-07-31T06:53:29;2.83;;;1.90;;
73919;SDS011;62266;53.348;-1.496;2023-07-31T06:56:13;4.57;;;2.33;;
73919;SDS011;62266;53.348;-1.496;2023-07-31T06:58:57;6.22;;;2.53;;
73919;SDS011;62266;53.348;-1.496;2023-07-31T07:01:41;5.80;;;2.70;;
73919;SDS011;62266;53.348;-1.496;2023-07-31T07:04:30;7.18;;;2.58;;
73919;SDS011;62266;53.348;-1.496;2023-07-31T07:07:13;5.65;;;2.67;;
73919;SDS011;62266;53.348;-1.496;2023-07-31T07:09:57;6.82;;;2.50;;
73919;SDS011;62266;53.348;-1.496;2023-07-31T07:12:43;9.05;;;2.60;;
73919;SDS011;62266;53.348;-1.496;2023-07-31T07:15:27;6.53;;;2.37;;
73919;SDS011;62266;53.348;-1.496;2023-07-31T07:18:12;6.82;;;2.80;;
73919;SDS011;62266;53.348;-1.496;2023-07-31T07:20:57;4.70;;;2.17;;
73919;SDS011;62266;53.348;-1.496;2023-07-31T07:23:42;4.93;;;2.17;;
73919;SDS011;62266;53.348;-1.496;2023-07-31T07:26:26;5.90;;;2.10;;
73919;SDS011;62266;53.348;-1.496;2023-07-31T07:29:10;4.73;;;2.10;;
73919;SDS011;62266;53.348;-1.496;2023-07-31T07:31:54;3.58;;;1.92;;
73919;SDS011;62266;53.348;-1.496;2023-07-31T07:34:38;5.35;;;2.65;;
73919;SDS011;62266;53.348;-1.496;2023-07-31T07:37:23;7.50;;;2.00;;
73919;SDS011;62266;53.348;-1.496;2023-07-31T07:40:07;5.13;;;2.10;;
73919;SDS011;62266;53.348;-1.496;2023-07-31T07:42:52;6.20;;;2.17;;
73919;SDS011;62266;53.348;-1.496;2023-07-31T07:45:36;4.90;;;2.30;;
73919;SDS011;62266;53.348;-1.496;2023-07-31T07:48:26;5.43;;;2.30;;
73919;SDS011;62266;53.348;-1.496;2023-07-31T07:51:12;5.15;;;2.28;;
73919;SDS011;62266;53.348;-1.496;2023-07-31T07:53:56;4.93;;;2.30;;
73919;SDS011;62266;53.348;-1.496;2023-07-31T07:56:44;4.60;;;2.57;;
73919;SDS011;62266;53.348;-1.496;2023-07-31T07:59:28;5.50;;;2.47;;
73919;SDS011;62266;53.348;-1.496;2023-07-31T08:02:12;6.03;;;2.40;;
73919;SDS011;62266;53.348;-1.496;2023-07-31T08:04:56;6.65;;;2.47;;
73919;SDS011;62266;53.348;-1.496;2023-07-31T08:07:40;6.18;;;2.38;;
73919;SDS011;62266;53.348;-1.496;2023-07-31T08:10:24;5.50;;;2.40;;
73919;SDS011;62266;53.348;-1.496;2023-07-31T08:13:11;5.05;;;2.17;;
73919;SDS011;62266;53.348;-1.496;2023-07-31T08:15:56;6.65;;;2.20;;
73919;SDS011;62266;53.348;-1.496;2023-07-31T08:18:40;5.38;;;2.17;;
73919;SDS011;62266;53.348;-1.496;2023-07-31T08:21:26;6.43;;;2.63;;
73919;SDS011;62266;53.348;-1.496;2023-07-31T08:24:10;7.30;;;2.80;;
73919;SDS011;62266;53.348;-1.496;2023-07-31T08:26:54;4.72;;;2.15;;
73919;SDS011;62266;53.348;-1.496;2023-07-31T08:29:38;4.00;;;2.28;;
73919;SDS011;62266;53.348;-1.496;2023-07-31T08:32:22;5.63;;;2.50;;
73919;SDS011;62266;53.348;-1.496;2023-07-31T08:35:06;7.95;;;2.55;;
73919;SDS011;62266;53.348;-1.496;2023-07-31T08:37:50;7.27;;;2.53;;
73919;SDS011;62266;53.348;-1.496;2023-07-31T08:40:37;5.15;;;2.70;;
73919;SDS011;62266;53.348;-1.496;2023-07-31T08:43:27;8.77;;;3.30;;
73919;SDS011;62266;53.348;-1.496;2023-07-31T08:46:12;6.75;;;2.72;;
73919;SDS011;62266;53.348;-1.496;2023-07-31T08:48:58;5.40;;;2.75;;
73919;SDS011;62266;53.348;-1.496;2023-07-31T08:51:43;7.90;;;2.87;;
73919;SDS011;62266;53.348;-1.496;2023-07-31T08:54:29;5.18;;;2.60;;
73919;SDS011;62266;53.348;-1.496;2023-07-31T08:57:14;6.22;;;2.78;;
73919;SDS011;62266;53.348;-1.496;2023-07-31T08:59:59;5.78;;;2.75;;
73919;SDS011;62266;53.348;-1.496;2023-07-31T09:02:50;8.27;;;2.45;;
73919;SDS011;62266;53.348;-1.496;2023-07-31T09:05:38;4.90;;;2.27;;
73919;SDS011;62266;53.348;-1.496;2023-07-31T09:08:23;5.18;;;2.50;;
73919;SDS011;62266;53.348;-1.496;2023-07-31T09:11:09;7.07;;;2.65;;
73919;SDS011;62266;53.348;-1.496;2023-07-31T09:13:53;7.43;;;2.50;;
73919;SDS011;62266;53.348;-1.496;2023-07-31T09:16:53;6.32;;;2.70;;
73919;SDS011;62266;53.348;-1.496;2023-07-31T09:19:38;5.23;;;2.77;;
73919;SDS011;62266;53.348;-1.496;2023-07-31T09:22:32;5.80;;;2.42;;
73919;SDS011;62266;53.348;-1.496;2023-07-31T09:25:21;4.43;;;2.20;;
73919;SDS011;62266;53.348;-1.496;2023-07-31T09:28:10;7.50;;;2.25;;
73919;SDS011;62266;53.348;-1.496;2023-07-31T09:30:54;6.90;;;2.50;;
73919;SDS011;62266;53.348;-1.496;2023-07-31T09:33:47;6.83;;;2.40;;
73919;SDS011;62266;53.348;-1.496;2023-07-31T09:39:32;7.55;;;2.83;;
73919;SDS011;62266;53.348;-1.496;2023-07-31T09:42:29;5.63;;;2.20;;
73919;SDS011;62266;53.348;-1.496;2023-07-31T09:45:15;3.88;;;1.67;;
73919;SDS011;62266;53.348;-1.496;2023-07-31T09:48:02;5.30;;;2.30;;
73919;SDS011;62266;53.348;-1.496;2023-07-31T09:50:47;6.35;;;2.85;;
73919;SDS011;62266;53.348;-1.496;2023-07-31T09:53:32;4.78;;;2.28;;
73919;SDS011;62266;53.348;-1.496;2023-07-31T09:56:16;4.45;;;2.58;;
73919;SDS011;62266;53.348;-1.496;2023-07-31T09:59:01;5.68;;;2.70;;
73919;SDS011;62266;53.348;-1.496;2023-07-31T10:01:47;5.53;;;2.67;;
73919;SDS011;62266;53.348;-1.496;2023-07-31T10:04:33;4.75;;;2.50;;
73919;SDS011;62266;53.348;-1.496;2023-07-31T10:07:17;5.28;;;2.70;;
73919;SDS011;62266;53.348;-1.496;2023-07-31T10:10:02;5.13;;;2.42;;
73919;SDS011;62266;53.348;-1.496;2023-07-31T10:12:48;6.43;;;2.85;;
73919;SDS011;62266;53.348;-1.496;2023-07-31T10:15:32;5.80;;;2.87;;
73919;SDS011;62266;53.348;-1.496;2023-07-31T10:18:18;6.63;;;2.40;;
73919;SDS011;62266;53.348;-1.496;2023-07-31T10:21:02;4.15;;;2.10;;
73919;SDS011;62266;53.348;-1.496;2023-07-31T10:23:50;4.72;;;2.67;;
73919;SDS011;62266;53.348;-1.496;2023-07-31T10:26:35;6.55;;;2.53;;
73919;SDS011;62266;53.348;-1.496;2023-07-31T10:29:21;6.80;;;2.57;;
73919;SDS011;62266;53.348;-1.496;2023-07-31T10:32:11;5.07;;;2.30;;
73919;SDS011;62266;53.348;-1.496;2023-07-31T10:34:56;5.55;;;2.50;;
73919;SDS011;62266;53.348;-1.496;2023-07-31T10:37:41;4.88;;;2.45;;
73919;SDS011;62266;53.348;-1.496;2023-07-31T10:40:34;7.35;;;2.47;;
73919;SDS011;62266;53.348;-1.496;2023-07-31T10:43:26;5.87;;;2.57;;
73919;SDS011;62266;53.348;-1.496;2023-07-31T10:46:11;5.13;;;2.20;;
73919;SDS011;62266;53.348;-1.496;2023-07-31T10:49:00;4.95;;;1.90;;
73919;SDS011;62266;53.348;-1.496;2023-07-31T10:51:46;6.20;;;2.38;;
73919;SDS011;62266;53.348;-1.496;2023-07-31T10:54:31;4.47;;;2.22;;
73919;SDS011;62266;53.348;-1.496;2023-07-31T10:57:23;3.70;;;2.10;;
73919;SDS011;62266;53.348;-1.496;2023-07-31T11:00:25;6.15;;;2.17;;
73919;SDS011;62266;53.348;-1.496;2023-07-31T11:03:14;8.18;;;2.58;;
73919;SDS011;62266;53.348;-1.496;2023-07-31T11:08:47;5.68;;;3.20;;
73919;SDS011;62266;53.348;-1.496;2023-07-31T11:11:33;6.47;;;2.53;;
73919;SDS011;62266;53.348;-1.496;2023-07-31T11:14:17;5.70;;;2.20;;
73919;SDS011;62266;53.348;-1.496;2023-07-31T11:17:05;6.68;;;2.88;;
73919;SDS011;62266;53.348;-1.496;2023-07-31T11:19:50;6.10;;;2.80;;
73919;SDS011;62266;53.348;-1.496;2023-07-31T11:22:34;5.25;;;2.97;;
73919;SDS011;62266;53.348;-1.496;2023-07-31T11:25:19;6.17;;;2.70;;
73919;SDS011;62266;53.348;-1.496;2023-07-31T11:28:04;5.95;;;2.92;;
73919;SDS011;62266;53.348;-1.496;2023-07-31T11:30:52;5.15;;;2.50;;
73919;SDS011;62266;53.348;-1.496;2023-07-31T11:33:39;6.85;;;2.58;;
73919;SDS011;62266;53.348;-1.496;2023-07-31T11:36:23;4.32;;;1.90;;
73919;SDS011;62266;53.348;-1.496;2023-07-31T11:39:08;5.30;;;1.80;;
73919;SDS011;62266;53.348;-1.496;2023-07-31T11:41:58;4.95;;;2.03;;
73919;SDS011;62266;53.348;-1.496;2023-07-31T11:44:42;4.90;;;1.80;;
73919;SDS011;62266;53.348;-1.496;2023-07-31T11:47:32;5.78;;;1.95;;
73919;SDS011;62266;53.348;-1.496;2023-07-31T11:50:18;5.70;;;1.98;;
73919;SDS011;62266;53.348;-1.496;2023-07-31T11:53:03;4.30;;;1.93;;
73919;SDS011;62266;53.348;-1.496;2023-07-31T11:55:51;4.82;;;1.85;;
73919;SDS011;62266;53.348;-1.496;2023-07-31T11:58:36;5.15;;;2.42;;
73919;SDS011;62266;53.348;-1.496;2023-07-31T12:01:20;3.85;;;1.65;;
73919;SDS011;62266;53.348;-1.496;2023-07-31T12:04:05;5.25;;;2.10;;
73919;SDS011;62266;53.348;-1.496;2023-07-31T12:06:49;5.43;;;2.60;;
73919;SDS011;62266;53.348;-1.496;2023-07-31T12:09:35;4.55;;;2.58;;
73919;SDS011;62266;53.348;-1.496;2023-07-31T12:12:23;4.97;;;2.40;;
73919;SDS011;62266;53.348;-1.496;2023-07-31T12:15:15;4.18;;;1.95;;
73919;SDS011;62266;53.348;-1.496;2023-07-31T12:18:07;6.53;;;2.97;;
73919;SDS011;62266;53.348;-1.496;2023-07-31T12:20:59;7.90;;;2.60;;
73919;SDS011;62266;53.348;-1.496;2023-07-31T12:23:44;5.72;;;2.70;;
73919;SDS011;62266;53.348;-1.496;2023-07-31T12:26:33;7.13;;;2.67;;
73919;SDS011;62266;53.348;-1.496;2023-07-31T12:29:18;5.45;;;2.40;;
73919;SDS011;62266;53.348;-1.496;2023-07-31T12:32:02;5.47;;;2.33;;
73919;SDS011;62266;53.348;-1.496;2023-07-31T12:34:46;5.53;;;2.60;;
73919;SDS011;62266;53.348;-1.496;2023-07-31T12:37:31;7.10;;;3.00;;
73919;SDS011;62266;53.348;-1.496;2023-07-31T12:40:16;6.07;;;2.75;;
73919;SDS011;62266;53.348;-1.496;2023-07-31T12:43:01;5.30;;;2.15;;
73919;SDS011;62266;53.348;-1.496;2023-07-31T12:45:53;6.90;;;2.40;;
73919;SDS011;62266;53.348;-1.496;2023-07-31T12:48:38;3.87;;;2.30;;
73919;SDS011;62266;53.348;-1.496;2023-07-31T12:51:25;6.35;;;2.00;;
73919;SDS011;62266;53.348;-1.496;2023-07-31T12:54:09;7.68;;;2.63;;
73919;SDS011;62266;53.348;-1.496;2023-07-31T12:56:53;5.50;;;2.10;;
73919;SDS011;62266;53.348;-1.496;2023-07-31T12:59:37;4.43;;;2.15;;
73919;SDS011;62266;53.348;-1.496;2023-07-31T13:02:21;3.73;;;1.83;;
73919;SDS011;62266;53.348;-1.496;2023-07-31T13:05:06;5.32;;;2.03;;
73919;SDS011;62266;53.348;-1.496;2023-07-31T13:07:50;6.30;;;2.20;;
73919;SDS011;62266;53.348;-1.496;2023-07-31T13:10:34;4.38;;;2.15;;
73919;SDS011;62266;53.348;-1.496;2023-07-31T13:13:18;7.80;;;2.28;;
73919;SDS011;62266;53.348;-1.496;2023-07-31T13:16:02;5.67;;;1.80;;
73919;SDS011;62266;53.348;-1.496;2023-07-31T13:18:46;4.30;;;2.55;;
73919;SDS011;62266;53.348;-1.496;2023-07-31T13:21:30;8.93;;;2.70;;
73919;SDS011;62266;53.348;-1.496;2023-07-31T13:24:14;5.47;;;2.20;;
73919;SDS011;62266;53.348;-1.496;2023-07-31T13:26:58;6.43;;;2.30;;
73919;SDS011;62266;53.348;-1.496;2023-07-31T13:29:43;7.10;;;2.10;;
73919;SDS011;62266;53.348;-1.496;2023-07-31T13:32:27;7.07;;;2.20;;
73919;SDS011;62266;53.348;-1.496;2023-07-31T13:35:11;14.38;;;5.63;;
73919;SDS011;62266;53.348;-1.496;2023-07-31T13:37:56;7.57;;;2.65;;
73919;SDS011;62266;53.348;-1.496;2023-07-31T13:40:39;6.18;;;2.15;;
73919;SDS011;62266;53.348;-1.496;2023-07-31T13:43:23;6.90;;;2.70;;
73919;SDS011;62266;53.348;-1.496;2023-07-31T13:46:08;5.82;;;2.42;;
73919;SDS011;62266;53.348;-1.496;2023-07-31T13:48:54;6.25;;;2.50;;
73919;SDS011;62266;53.348;-1.496;2023-07-31T13:51:39;6.97;;;2.55;;
73919;SDS011;62266;53.348;-1.496;2023-07-31T13:54:23;10.02;;;2.83;;
73919;SDS011;62266;53.348;-1.496;2023-07-31T13:57:11;7.73;;;2.83;;
73919;SDS011;62266;53.348;-1.496;2023-07-31T13:59:57;6.18;;;2.80;;
73919;SDS011;62266;53.348;-1.496;2023-07-31T14:02:41;5.72;;;2.13;;
73919;SDS011;62266;53.348;-1.496;2023-07-31T14:05:25;5.15;;;2.20;;
73919;SDS011;62266;53.348;-1.496;2023-07-31T14:08:09;3.92;;;1.90;;
73919;SDS011;62266;53.348;-1.496;2023-07-31T14:10:53;6.00;;;2.50;;
73919;SDS011;62266;53.348;-1.496;2023-07-31T14:13:37;4.75;;;2.00;;
73919;SDS011;62266;53.348;-1.496;2023-07-31T14:16:21;5.43;;;2.90;;
73919;SDS011;62266;53.348;-1.496;2023-07-31T14:19:06;5.53;;;2.40;;
73919;SDS011;62266;53.348;-1.496;2023-07-31T14:21:52;4.30;;;2.00;;
73919;SDS011;62266;53.348;-1.496;2023-07-31T14:24:36;6.37;;;2.63;;
73919;SDS011;62266;53.348;-1.496;2023-07-31T14:27:21;6.57;;;2.25;;
73919;SDS011;62266;53.348;-1.496;2023-07-31T14:30:05;4.70;;;2.10;;
73919;SDS011;62266;53.348;-1.496;2023-07-31T14:32:50;5.43;;;1.85;;
73919;SDS011;62266;53.348;-1.496;2023-07-31T14:35:34;6.63;;;2.53;;
73919;SDS011;62266;53.348;-1.496;2023-07-31T14:38:18;4.40;;;1.60;;
73919;SDS011;62266;53.348;-1.496;2023-07-31T14:41:02;3.75;;;1.80;;
73919;SDS011;62266;53.348;-1.496;2023-07-31T14:43:47;6.40;;;1.70;;
73919;SDS011;62266;53.348;-1.496;2023-07-31T14:46:31;5.97;;;1.77;;
73919;SDS011;62266;53.348;-1.496;2023-07-31T14:49:15;6.28;;;2.30;;
73919;SDS011;62266;53.348;-1.496;2023-07-31T14:51:59;5.37;;;2.10;;
73919;SDS011;62266;53.348;-1.496;2023-07-31T14:54:45;6.10;;;1.88;;
73919;SDS011;62266;53.348;-1.496;2023-07-31T14:57:29;7.13;;;2.03;;
73919;SDS011;62266;53.348;-1.496;2023-07-31T15:00:14;3.53;;;1.45;;
73919;SDS011;62266;53.348;-1.496;2023-07-31T15:02:59;5.13;;;2.10;;
73919;SDS011;62266;53.348;-1.496;2023-07-31T15:05:43;4.27;;;1.77;;
73919;SDS011;62266;53.348;-1.496;2023-07-31T15:08:26;5.07;;;2.05;;
73919;SDS011;62266;53.348;-1.496;2023-07-31T15:11:10;4.40;;;1.73;;
73919;SDS011;62266;53.348;-1.496;2023-07-31T15:13:55;7.15;;;2.05;;
73919;SDS011;62266;53.348;-1.496;2023-07-31T15:16:39;3.45;;;1.52;;
73919;SDS011;62266;53.348;-1.496;2023-07-31T15:19:23;4.43;;;1.63;;
73919;SDS011;62266;53.348;-1.496;2023-07-31T15:22:07;4.70;;;1.50;;
73919;SDS011;62266;53.348;-1.496;2023-07-31T15:24:51;4.85;;;1.58;;
73919;SDS011;62266;53.348;-1.496;2023-07-31T15:27:35;5.50;;;1.50;;
73919;SDS011;62266;53.348;-1.496;2023-07-31T15:30:20;4.50;;;1.50;;
73919;SDS011;62266;53.348;-1.496;2023-07-31T15:33:04;5.23;;;1.80;;
73919;SDS011;62266;53.348;-1.496;2023-07-31T15:35:48;7.13;;;1.83;;
73919;SDS011;62266;53.348;-1.496;2023-07-31T15:38:36;4.72;;;1.80;;
73919;SDS011;62266;53.348;-1.496;2023-07-31T15:41:23;3.33;;;1.55;;
73919;SDS011;62266;53.348;-1.496;2023-07-31T15:44:09;6.35;;;2.00;;
73919;SDS011;62266;53.348;-1.496;2023-07-31T15:46:53;2.50;;;1.40;;
73919;SDS011;62266;53.348;-1.496;2023-07-31T15:49:37;4.10;;;1.55;;
73919;SDS011;62266;53.348;-1.496;2023-07-31T15:52:21;1.60;;;1.00;;
73919;SDS011;62266;53.348;-1.496;2023-07-31T15:55:05;0.93;;;0.50;;
73919;SDS011;62266;53.348;-1.496;2023-07-31T15:57:49;1.85;;;0.38;;
73919;SDS011;62266;53.348;-1.496;2023-07-31T16:00:33;0.90;;;0.40;;
73919;SDS011;62266;53.348;-1.496;2023-07-31T16:03:19;1.13;;;0.50;;
73919;SDS011;62266;53.348;-1.496;2023-07-31T16:06:05;1.40;;;0.50;;
73919;SDS011;62266;53.348;-1.496;2023-07-31T16:08:49;1.13;;;0.50;;
73919;SDS011;62266;53.348;-1.496;2023-07-31T16:11:39;0.90;;;0.40;;
73919;SDS011;62266;53.348;-1.496;2023-07-31T16:14:23;0.70;;;0.40;;
73919;SDS011;62266;53.348;-1.496;2023-07-31T16:17:07;0.65;;;0.40;;
73919;SDS011;62266;53.348;-1.496;2023-07-31T16:19:51;2.00;;;0.50;;
73919;SDS011;62266;53.348;-1.496;2023-07-31T16:22:35;0.60;;;0.35;;
73919;SDS011;62266;53.348;-1.496;2023-07-31T16:25:19;0.65;;;0.40;;
73919;SDS011;62266;53.348;-1.496;2023-07-31T16:28:04;0.97;;;0.40;;
73919;SDS011;62266;53.348;-1.496;2023-07-31T16:30:48;1.10;;;0.57;;
73919;SDS011;62266;53.348;-1.496;2023-07-31T16:33:32;2.15;;;0.22;;